sensor_id;sensor_type;location;lat;lon;timestamp;temperature;humidity
42979;DHT22;28616;44.746;19.678;2022-07-06T00:01:59;20.00;99.90
42979;DHT22;28616;44.746;19.678;2022-07-06T00:04:24;20.10;99.90
42979;DHT22;28616;44.746;19.678;2022-07-06T00:06:50;20.10;99.90
42979;DHT22;28616;44.746;19.678;2022-07-06T00:09:16;20.00;99.90
42979;DHT22;28616;44.746;19.678;2022-07-06T00:11:42;20.00;99.90
42979;DHT22;28616;44.746;19.678;2022-07-06T00:14:08;20.00;99.90
42979;DHT22;28616;44.746;19.678;2022-07-06T00:16:33;19.90;99.90
42979;DHT22;28616;44.746;19.678;2022-07-06T00:18:59;19.90;99.90
42979;DHT22;28616;44.746;19.678;2022-07-06T00:21:25;19.90;99.90
42979;DHT22;28616;44.746;19.678;2022-07-06T00:23:51;19.90;99.90
42979;DHT22;28616;44.746;19.678;2022-07-06T00:26:18;19.90;99.90
42979;DHT22;28616;44.746;19.678;2022-07-06T00:28:44;19.90;99.90
42979;DHT22;28616;44.746;19.678;2022-07-06T00:31:10;19.80;99.90
42979;DHT22;28616;44.746;19.678;2022-07-06T00:33:36;19.90;99.90
42979;DHT22;28616;44.746;19.678;2022-07-06T00:36:02;19.90;99.90
42979;DHT22;28616;44.746;19.678;2022-07-06T00:38:27;19.90;99.90
42979;DHT22;28616;44.746;19.678;2022-07-06T00:40:53;19.90;99.90
42979;DHT22;28616;44.746;19.678;2022-07-06T00:43:19;19.80;99.90
42979;DHT22;28616;44.746;19.678;2022-07-06T00:45:46;19.80;99.90
42979;DHT22;28616;44.746;19.678;2022-07-06T00:48:11;19.80;99.90
42979;DHT22;28616;44.746;19.678;2022-07-06T00:50:38;19.80;99.90
42979;DHT22;28616;44.746;19.678;2022-07-06T00:53:06;19.80;99.90
42979;DHT22;28616;44.746;19.678;2022-07-06T00:55:34;19.80;99.90
42979;DHT22;28616;44.746;19.678;2022-07-06T00:58:04;19.80;99.90
42979;DHT22;28616;44.746;19.678;2022-07-06T01:00:31;19.70;99.90
42979;DHT22;28616;44.746;19.678;2022-07-06T01:02:57;19.70;99.90
42979;DHT22;28616;44.746;19.678;2022-07-06T01:05:23;19.70;99.90
42979;DHT22;28616;44.746;19.678;2022-07-06T01:07:50;19.70;99.90
42979;DHT22;28616;44.746;19.678;2022-07-06T01:10:17;19.70;99.90
42979;DHT22;28616;44.746;19.678;2022-07-06T01:12:44;19.70;99.90
42979;DHT22;28616;44.746;19.678;2022-07-06T01:15:19;19.70;99.90
42979;DHT22;28616;44.746;19.678;2022-07-06T01:17:46;19.80;99.90
42979;DHT22;28616;44.746;19.678;2022-07-06T01:20:15;19.80;99.90
42979;DHT22;28616;44.746;19.678;2022-07-06T01:22:43;19.70;99.90
42979;DHT22;28616;44.746;19.678;2022-07-06T01:25:10;19.70;99.90
42979;DHT22;28616;44.746;19.678;2022-07-06T01:27:38;19.70;99.90
42979;DHT22;28616;44.746;19.678;2022-07-06T01:30:12;19.70;99.90
42979;DHT22;28616;44.746;19.678;2022-07-06T01:32:39;19.70;99.90
42979;DHT22;28616;44.746;19.678;2022-07-06T01:35:07;19.60;99.90
42979;DHT22;28616;44.746;19.678;2022-07-06T01:37:33;19.60;99.90
42979;DHT22;28616;44.746;19.678;2022-07-06T01:39:59;19.60;99.90
42979;DHT22;28616;44.746;19.678;2022-07-06T01:42:26;19.60;99.90
42979;DHT22;28616;44.746;19.678;2022-07-06T01:44:53;19.50;99.90
42979;DHT22;28616;44.746;19.678;2022-07-06T01:47:19;19.50;99.90
42979;DHT22;28616;44.746;19.678;2022-07-06T01:49:45;19.50;99.90
42979;DHT22;28616;44.746;19.678;2022-07-06T01:52:10;19.40;99.90
42979;DHT22;28616;44.746;19.678;2022-07-06T01:54:36;19.50;99.90
42979;DHT22;28616;44.746;19.678;2022-07-06T01:57:02;19.50;99.90
42979;DHT22;28616;44.746;19.678;2022-07-06T01:59:28;19.50;99.90
42979;DHT22;28616;44.746;19.678;2022-07-06T02:01:54;19.50;99.90
42979;DHT22;28616;44.746;19.678;2022-07-06T02:04:19;19.50;99.90
42979;DHT22;28616;44.746;19.678;2022-07-06T02:06:45;19.50;99.90
42979;DHT22;28616;44.746;19.678;2022-07-06T02:09:11;19.50;99.90
42979;DHT22;28616;44.746;19.678;2022-07-06T02:11:36;19.50;99.90
42979;DHT22;28616;44.746;19.678;2022-07-06T02:14:02;19.50;99.90
42979;DHT22;28616;44.746;19.678;2022-07-06T02:16:28;19.60;99.90
42979;DHT22;28616;44.746;19.678;2022-07-06T02:18:54;19.60;99.90
42979;DHT22;28616;44.746;19.678;2022-07-06T02:21:20;19.50;99.90
42979;DHT22;28616;44.746;19.678;2022-07-06T02:23:46;19.50;99.90
42979;DHT22;28616;44.746;19.678;2022-07-06T02:26:11;19.50;99.90
42979;DHT22;28616;44.746;19.678;2022-07-06T02:28:38;19.50;99.90
42979;DHT22;28616;44.746;19.678;2022-07-06T02:31:04;19.50;99.90
42979;DHT22;28616;44.746;19.678;2022-07-06T02:33:30;19.50;99.90
42979;DHT22;28616;44.746;19.678;2022-07-06T02:35:56;19.50;99.90
42979;DHT22;28616;44.746;19.678;2022-07-06T02:38:22;19.50;99.90
42979;DHT22;28616;44.746;19.678;2022-07-06T02:40:48;19.40;99.90
42979;DHT22;28616;44.746;19.678;2022-07-06T02:43:14;19.40;99.90
42979;DHT22;28616;44.746;19.678;2022-07-06T02:45:40;19.40;99.90
42979;DHT22;28616;44.746;19.678;2022-07-06T02:48:05;19.30;99.90
42979;DHT22;28616;44.746;19.678;2022-07-06T02:50:31;19.20;99.90
42979;DHT22;28616;44.746;19.678;2022-07-06T02:52:57;19.30;99.90
42979;DHT22;28616;44.746;19.678;2022-07-06T02:55:24;19.20;99.90
42979;DHT22;28616;44.746;19.678;2022-07-06T02:57:50;19.20;99.90
42979;DHT22;28616;44.746;19.678;2022-07-06T03:00:16;19.20;99.90
42979;DHT22;28616;44.746;19.678;2022-07-06T03:02:42;19.20;99.90
42979;DHT22;28616;44.746;19.678;2022-07-06T03:05:08;19.20;99.90
42979;DHT22;28616;44.746;19.678;2022-07-06T03:07:34;19.10;99.90
42979;DHT22;28616;44.746;19.678;2022-07-06T03:09:59;19.20;99.90
42979;DHT22;28616;44.746;19.678;2022-07-06T03:12:25;19.10;99.90
42979;DHT22;28616;44.746;19.678;2022-07-06T03:14:51;19.10;99.90
42979;DHT22;28616;44.746;19.678;2022-07-06T03:17:17;19.10;99.90
42979;DHT22;28616;44.746;19.678;2022-07-06T03:19:43;19.10;99.90
42979;DHT22;28616;44.746;19.678;2022-07-06T03:22:08;19.10;99.90
42979;DHT22;28616;44.746;19.678;2022-07-06T03:24:34;19.10;99.90
42979;DHT22;28616;44.746;19.678;2022-07-06T03:27:00;19.10;99.90
42979;DHT22;28616;44.746;19.678;2022-07-06T03:29:26;19.10;99.90
42979;DHT22;28616;44.746;19.678;2022-07-06T03:31:51;19.20;99.90
42979;DHT22;28616;44.746;19.678;2022-07-06T03:34:17;19.10;99.90
42979;DHT22;28616;44.746;19.678;2022-07-06T03:36:43;19.20;99.90
42979;DHT22;28616;44.746;19.678;2022-07-06T03:39:09;19.10;99.90
42979;DHT22;28616;44.746;19.678;2022-07-06T03:41:34;19.20;99.90
42979;DHT22;28616;44.746;19.678;2022-07-06T03:44:00;19.20;99.90
42979;DHT22;28616;44.746;19.678;2022-07-06T03:46:27;19.20;99.90
42979;DHT22;28616;44.746;19.678;2022-07-06T03:48:54;19.20;99.90
42979;DHT22;28616;44.746;19.678;2022-07-06T03:51:19;19.20;99.90
42979;DHT22;28616;44.746;19.678;2022-07-06T03:53:45;19.20;99.90
42979;DHT22;28616;44.746;19.678;2022-07-06T03:56:11;19.20;99.90
42979;DHT22;28616;44.746;19.678;2022-07-06T03:58:56;19.20;99.90
42979;DHT22;28616;44.746;19.678;2022-07-06T04:01:22;19.20;99.90
42979;DHT22;28616;44.746;19.678;2022-07-06T04:03:48;19.20;99.90
42979;DHT22;28616;44.746;19.678;2022-07-06T04:06:14;19.20;99.90
42979;DHT22;28616;44.746;19.678;2022-07-06T04:08:40;19.30;99.90
42979;DHT22;28616;44.746;19.678;2022-07-06T04:11:06;19.30;99.90
42979;DHT22;28616;44.746;19.678;2022-07-06T04:13:31;19.30;99.90
42979;DHT22;28616;44.746;19.678;2022-07-06T04:15:58;19.40;99.90
42979;DHT22;28616;44.746;19.678;2022-07-06T04:18:23;19.40;99.90
42979;DHT22;28616;44.746;19.678;2022-07-06T04:20:49;19.40;99.90
42979;DHT22;28616;44.746;19.678;2022-07-06T04:23:15;19.50;99.90
42979;DHT22;28616;44.746;19.678;2022-07-06T04:25:41;19.50;99.90
42979;DHT22;28616;44.746;19.678;2022-07-06T04:28:07;19.50;99.90
42979;DHT22;28616;44.746;19.678;2022-07-06T04:30:33;19.60;99.90
42979;DHT22;28616;44.746;19.678;2022-07-06T04:32:58;19.60;99.90
42979;DHT22;28616;44.746;19.678;2022-07-06T04:35:24;19.70;99.90
42979;DHT22;28616;44.746;19.678;2022-07-06T04:37:50;19.70;99.90
42979;DHT22;28616;44.746;19.678;2022-07-06T04:40:16;19.80;99.90
42979;DHT22;28616;44.746;19.678;2022-07-06T04:42:42;19.70;99.90
42979;DHT22;28616;44.746;19.678;2022-07-06T04:45:08;19.80;99.90
42979;DHT22;28616;44.746;19.678;2022-07-06T04:47:34;19.90;99.90
42979;DHT22;28616;44.746;19.678;2022-07-06T04:50:01;19.90;99.90
42979;DHT22;28616;44.746;19.678;2022-07-06T04:52:28;19.90;99.90
42979;DHT22;28616;44.746;19.678;2022-07-06T04:54:56;19.90;99.90
42979;DHT22;28616;44.746;19.678;2022-07-06T04:57:22;20.00;99.90
42979;DHT22;28616;44.746;19.678;2022-07-06T04:59:48;20.10;99.90
42979;DHT22;28616;44.746;19.678;2022-07-06T05:02:14;20.20;99.90
42979;DHT22;28616;44.746;19.678;2022-07-06T05:04:39;20.20;99.90
42979;DHT22;28616;44.746;19.678;2022-07-06T05:07:05;20.30;99.90
42979;DHT22;28616;44.746;19.678;2022-07-06T05:09:31;20.30;99.90
42979;DHT22;28616;44.746;19.678;2022-07-06T05:11:57;20.40;99.90
42979;DHT22;28616;44.746;19.678;2022-07-06T05:14:23;20.40;99.90
42979;DHT22;28616;44.746;19.678;2022-07-06T05:16:49;20.50;99.90
42979;DHT22;28616;44.746;19.678;2022-07-06T05:19:14;20.50;99.90
42979;DHT22;28616;44.746;19.678;2022-07-06T05:21:40;20.60;99.90
42979;DHT22;28616;44.746;19.678;2022-07-06T05:24:06;20.70;99.90
42979;DHT22;28616;44.746;19.678;2022-07-06T05:26:32;20.70;99.90
42979;DHT22;28616;44.746;19.678;2022-07-06T05:28:58;20.80;99.90
42979;DHT22;28616;44.746;19.678;2022-07-06T05:31:24;20.90;99.90
42979;DHT22;28616;44.746;19.678;2022-07-06T05:33:49;20.90;99.90
42979;DHT22;28616;44.746;19.678;2022-07-06T05:36:15;21.00;99.90
42979;DHT22;28616;44.746;19.678;2022-07-06T05:38:41;21.10;99.90
42979;DHT22;28616;44.746;19.678;2022-07-06T05:41:07;21.20;99.90
42979;DHT22;28616;44.746;19.678;2022-07-06T05:43:35;21.20;99.90
42979;DHT22;28616;44.746;19.678;2022-07-06T05:46:01;21.30;99.90
42979;DHT22;28616;44.746;19.678;2022-07-06T05:48:27;21.40;99.90
42979;DHT22;28616;44.746;19.678;2022-07-06T05:51:11;21.40;99.90
42979;DHT22;28616;44.746;19.678;2022-07-06T05:53:37;21.50;99.90
42979;DHT22;28616;44.746;19.678;2022-07-06T05:56:03;21.60;99.90
42979;DHT22;28616;44.746;19.678;2022-07-06T05:58:29;21.70;99.90
42979;DHT22;28616;44.746;19.678;2022-07-06T06:00:54;21.70;99.90
42979;DHT22;28616;44.746;19.678;2022-07-06T06:03:20;21.70;99.90
42979;DHT22;28616;44.746;19.678;2022-07-06T06:05:46;21.80;99.90
42979;DHT22;28616;44.746;19.678;2022-07-06T06:08:12;21.90;99.90
42979;DHT22;28616;44.746;19.678;2022-07-06T06:10:37;21.90;99.90
42979;DHT22;28616;44.746;19.678;2022-07-06T06:13:03;22.00;99.90
42979;DHT22;28616;44.746;19.678;2022-07-06T06:15:29;22.00;99.90
42979;DHT22;28616;44.746;19.678;2022-07-06T06:17:55;22.10;99.90
42979;DHT22;28616;44.746;19.678;2022-07-06T06:20:21;22.00;99.90
42979;DHT22;28616;44.746;19.678;2022-07-06T06:22:48;22.10;99.90
42979;DHT22;28616;44.746;19.678;2022-07-06T06:25:17;22.10;99.90
42979;DHT22;28616;44.746;19.678;2022-07-06T06:27:43;22.30;99.90
42979;DHT22;28616;44.746;19.678;2022-07-06T06:30:10;22.40;99.90
42979;DHT22;28616;44.746;19.678;2022-07-06T06:32:36;22.40;99.90
42979;DHT22;28616;44.746;19.678;2022-07-06T06:35:03;22.50;99.90
42979;DHT22;28616;44.746;19.678;2022-07-06T06:37:29;22.60;99.90
42979;DHT22;28616;44.746;19.678;2022-07-06T06:39:55;22.60;99.90
42979;DHT22;28616;44.746;19.678;2022-07-06T06:42:20;22.70;99.90
42979;DHT22;28616;44.746;19.678;2022-07-06T06:44:46;22.70;99.90
42979;DHT22;28616;44.746;19.678;2022-07-06T06:47:12;22.80;99.90
42979;DHT22;28616;44.746;19.678;2022-07-06T06:49:38;22.90;99.90
42979;DHT22;28616;44.746;19.678;2022-07-06T19:38:19;24.40;60.40
42979;DHT22;28616;44.746;19.678;2022-07-06T19:40:45;24.30;60.90
42979;DHT22;28616;44.746;19.678;2022-07-06T19:43:11;24.20;63.50
42979;DHT22;28616;44.746;19.678;2022-07-06T19:45:37;24.20;64.70
42979;DHT22;28616;44.746;19.678;2022-07-06T19:48:03;24.10;65.50
42979;DHT22;28616;44.746;19.678;2022-07-06T19:50:29;24.10;67.40
42979;DHT22;28616;44.746;19.678;2022-07-06T19:52:55;24.00;67.20
42979;DHT22;28616;44.746;19.678;2022-07-06T19:55:21;23.90;67.70
42979;DHT22;28616;44.746;19.678;2022-07-06T19:57:47;23.80;68.60
42979;DHT22;28616;44.746;19.678;2022-07-06T20:00:13;23.70;68.60
42979;DHT22;28616;44.746;19.678;2022-07-06T20:02:38;23.60;70.10
42979;DHT22;28616;44.746;19.678;2022-07-06T20:05:05;23.50;69.50
42979;DHT22;28616;44.746;19.678;2022-07-06T20:07:31;23.50;70.30
42979;DHT22;28616;44.746;19.678;2022-07-06T20:09:56;23.40;71.00
42979;DHT22;28616;44.746;19.678;2022-07-06T20:12:22;23.30;73.20
42979;DHT22;28616;44.746;19.678;2022-07-06T20:14:49;23.20;72.10
42979;DHT22;28616;44.746;19.678;2022-07-06T20:17:15;23.20;70.30
42979;DHT22;28616;44.746;19.678;2022-07-06T20:19:41;23.20;71.90
42979;DHT22;28616;44.746;19.678;2022-07-06T20:22:06;23.20;71.90
42979;DHT22;28616;44.746;19.678;2022-07-06T20:24:32;23.20;72.80
42979;DHT22;28616;44.746;19.678;2022-07-06T20:26:58;23.20;73.00
42979;DHT22;28616;44.746;19.678;2022-07-06T20:29:24;23.10;71.20
42979;DHT22;28616;44.746;19.678;2022-07-06T20:31:50;23.10;71.00
42979;DHT22;28616;44.746;19.678;2022-07-06T20:34:16;23.00;71.30
42979;DHT22;28616;44.746;19.678;2022-07-06T20:36:42;23.00;71.40
42979;DHT22;28616;44.746;19.678;2022-07-06T20:39:08;22.90;73.40
42979;DHT22;28616;44.746;19.678;2022-07-06T20:41:34;22.80;74.00
42979;DHT22;28616;44.746;19.678;2022-07-06T20:44:00;22.70;76.00
42979;DHT22;28616;44.746;19.678;2022-07-06T20:46:25;22.70;77.70
42979;DHT22;28616;44.746;19.678;2022-07-06T20:48:51;22.60;81.10
42979;DHT22;28616;44.746;19.678;2022-07-06T20:51:17;22.50;82.60
42979;DHT22;28616;44.746;19.678;2022-07-06T20:53:44;22.40;83.00
42979;DHT22;28616;44.746;19.678;2022-07-06T20:56:11;22.40;77.30
42979;DHT22;28616;44.746;19.678;2022-07-06T20:58:36;22.40;79.50
42979;DHT22;28616;44.746;19.678;2022-07-06T21:01:02;22.40;77.30
42979;DHT22;28616;44.746;19.678;2022-07-06T21:03:28;22.40;76.50
42979;DHT22;28616;44.746;19.678;2022-07-06T21:05:56;22.50;77.10
42979;DHT22;28616;44.746;19.678;2022-07-06T21:08:22;22.50;76.90
42979;DHT22;28616;44.746;19.678;2022-07-06T21:10:48;22.50;77.00
42979;DHT22;28616;44.746;19.678;2022-07-06T21:13:14;22.40;75.00
42979;DHT22;28616;44.746;19.678;2022-07-06T21:15:40;22.40;74.00
42979;DHT22;28616;44.746;19.678;2022-07-06T21:18:05;22.40;75.20
42979;DHT22;28616;44.746;19.678;2022-07-06T21:20:31;22.30;74.90
42979;DHT22;28616;44.746;19.678;2022-07-06T21:22:57;22.30;75.70
42979;DHT22;28616;44.746;19.678;2022-07-06T21:25:23;22.30;74.30
42979;DHT22;28616;44.746;19.678;2022-07-06T21:27:48;22.30;75.90
42979;DHT22;28616;44.746;19.678;2022-07-06T21:30:14;22.20;75.30
42979;DHT22;28616;44.746;19.678;2022-07-06T21:32:40;22.10;77.70
42979;DHT22;28616;44.746;19.678;2022-07-06T21:35:06;22.10;78.80
42979;DHT22;28616;44.746;19.678;2022-07-06T21:37:32;22.00;81.80
42979;DHT22;28616;44.746;19.678;2022-07-06T21:39:58;22.00;82.90
42979;DHT22;28616;44.746;19.678;2022-07-06T21:42:23;22.00;87.00
42979;DHT22;28616;44.746;19.678;2022-07-06T21:44:50;22.00;88.80
42979;DHT22;28616;44.746;19.678;2022-07-06T21:47:16;21.90;88.70
42979;DHT22;28616;44.746;19.678;2022-07-06T21:49:41;21.80;92.40
42979;DHT22;28616;44.746;19.678;2022-07-06T21:52:07;21.70;93.60
42979;DHT22;28616;44.746;19.678;2022-07-06T21:54:33;21.60;97.00
42979;DHT22;28616;44.746;19.678;2022-07-06T21:56:59;21.60;99.90
42979;DHT22;28616;44.746;19.678;2022-07-06T21:59:25;21.50;99.90
42979;DHT22;28616;44.746;19.678;2022-07-06T22:01:54;21.50;99.90
42979;DHT22;28616;44.746;19.678;2022-07-06T22:04:20;21.50;99.90
42979;DHT22;28616;44.746;19.678;2022-07-06T22:06:46;21.50;99.90
42979;DHT22;28616;44.746;19.678;2022-07-06T22:09:12;21.40;99.90
42979;DHT22;28616;44.746;19.678;2022-07-06T22:11:38;21.40;99.90
42979;DHT22;28616;44.746;19.678;2022-07-06T22:14:04;21.30;99.90
42979;DHT22;28616;44.746;19.678;2022-07-06T22:16:30;21.30;99.90
42979;DHT22;28616;44.746;19.678;2022-07-06T22:18:55;21.20;99.90
42979;DHT22;28616;44.746;19.678;2022-07-06T22:21:22;21.20;99.90
42979;DHT22;28616;44.746;19.678;2022-07-06T22:23:48;21.00;99.90
42979;DHT22;28616;44.746;19.678;2022-07-06T22:26:14;21.00;99.90
42979;DHT22;28616;44.746;19.678;2022-07-06T22:28:43;20.90;99.90
42979;DHT22;28616;44.746;19.678;2022-07-06T22:31:09;20.80;99.90
42979;DHT22;28616;44.746;19.678;2022-07-06T22:33:35;20.70;99.90
42979;DHT22;28616;44.746;19.678;2022-07-06T22:36:02;20.70;99.90
42979;DHT22;28616;44.746;19.678;2022-07-06T22:38:28;20.70;99.90
42979;DHT22;28616;44.746;19.678;2022-07-06T22:40:54;20.70;99.90
42979;DHT22;28616;44.746;19.678;2022-07-06T22:43:29;20.50;99.90
42979;DHT22;28616;44.746;19.678;2022-07-06T22:45:56;20.50;99.90
42979;DHT22;28616;44.746;19.678;2022-07-06T22:48:22;20.30;99.90
42979;DHT22;28616;44.746;19.678;2022-07-06T22:50:48;20.20;99.90
42979;DHT22;28616;44.746;19.678;2022-07-06T22:53:14;20.00;99.90
42979;DHT22;28616;44.746;19.678;2022-07-06T22:55:40;19.90;99.90
42979;DHT22;28616;44.746;19.678;2022-07-06T22:58:06;19.90;99.90
42979;DHT22;28616;44.746;19.678;2022-07-06T23:00:32;19.80;99.90
42979;DHT22;28616;44.746;19.678;2022-07-06T23:02:57;19.80;99.90
42979;DHT22;28616;44.746;19.678;2022-07-06T23:07:49;19.60;99.90
42979;DHT22;28616;44.746;19.678;2022-07-06T23:10:15;19.70;99.90
42979;DHT22;28616;44.746;19.678;2022-07-06T23:12:41;19.60;99.90
42979;DHT22;28616;44.746;19.678;2022-07-06T23:15:07;19.60;99.90
42979;DHT22;28616;44.746;19.678;2022-07-06T23:17:33;19.60;99.90
42979;DHT22;28616;44.746;19.678;2022-07-06T23:19:59;19.40;99.90
42979;DHT22;28616;44.746;19.678;2022-07-06T23:22:25;19.30;99.90
42979;DHT22;28616;44.746;19.678;2022-07-06T23:24:50;19.40;99.90
42979;DHT22;28616;44.746;19.678;2022-07-06T23:27:16;19.40;99.90
42979;DHT22;28616;44.746;19.678;2022-07-06T23:29:42;19.40;99.90
42979;DHT22;28616;44.746;19.678;2022-07-06T23:32:08;19.40;99.90
42979;DHT22;28616;44.746;19.678;2022-07-06T23:34:34;19.40;99.90
42979;DHT22;28616;44.746;19.678;2022-07-06T23:36:59;19.30;99.90
42979;DHT22;28616;44.746;19.678;2022-07-06T23:39:25;19.30;99.90
42979;DHT22;28616;44.746;19.678;2022-07-06T23:41:51;19.30;99.90
42979;DHT22;28616;44.746;19.678;2022-07-06T23:44:20;19.40;99.90
42979;DHT22;28616;44.746;19.678;2022-07-06T23:46:46;19.40;99.90
42979;DHT22;28616;44.746;19.678;2022-07-06T23:49:12;19.40;99.90
42979;DHT22;28616;44.746;19.678;2022-07-06T23:51:38;19.30;99.90
42979;DHT22;28616;44.746;19.678;2022-07-06T23:54:04;19.40;99.90
42979;DHT22;28616;44.746;19.678;2022-07-06T23:56:30;19.40;99.90
42979;DHT22;28616;44.746;19.678;2022-07-06T23:58:59;19.30;99.90
